createdAt,value
2019-06-09T00:01:42.857Z,56.80
2019-06-09T00:04:17.737Z,57.14
2019-06-09T00:06:50.989Z,57.75
2019-06-09T00:09:23.934Z,57.53
2019-06-09T00:12:00.783Z,57.44
2019-06-09T00:14:33.094Z,57.05
2019-06-09T00:17:07.733Z,57.54
2019-06-09T00:19:39.183Z,57.66
2019-06-09T00:22:12.603Z,58.01
2019-06-09T00:24:44.025Z,58.43
2019-06-09T00:27:19.752Z,58.95
2019-06-09T00:29:52.007Z,58.70
2019-06-09T00:32:27.588Z,58.80
2019-06-09T00:35:02.373Z,59.63
2019-06-09T00:37:34.229Z,59.33
2019-06-09T00:40:08.180Z,59.39
2019-06-09T00:42:43.309Z,58.45
2019-06-09T00:45:16.631Z,58.44
2019-06-09T00:47:50.162Z,58.46
2019-06-09T00:50:22.256Z,59.15
2019-06-09T00:52:57.884Z,58.81
2019-06-09T00:55:31.322Z,58.78
2019-06-09T00:58:07.051Z,59.30
2019-06-09T01:00:40.186Z,61.42
2019-06-09T01:03:15.637Z,61.74
2019-06-09T01:05:49.189Z,61.35
2019-06-09T01:08:20.389Z,61.27
2019-06-09T01:10:53.521Z,60.16
2019-06-09T01:13:28.115Z,59.69
2019-06-09T01:15:59.741Z,60.19
2019-06-09T01:18:33.028Z,60.54
2019-06-09T01:21:07.417Z,61.02
2019-06-09T01:23:41.906Z,60.84
2019-06-09T01:26:14.530Z,60.71
2019-06-09T01:28:48.103Z,60.40
2019-06-09T01:31:20.378Z,60.49
2019-06-09T01:33:53.446Z,60.19
2019-06-09T01:36:28.203Z,60.75
2019-06-09T01:39:02.567Z,60.98
2019-06-09T01:41:37.787Z,60.91
2019-06-09T01:44:12.554Z,61.41
2019-06-09T01:46:47.925Z,61.71
2019-06-09T01:49:22.760Z,61.76
2019-06-09T01:51:57.623Z,61.30
2019-06-09T01:54:30.034Z,60.33
2019-06-09T01:57:01.908Z,58.98
2019-06-09T01:59:37.024Z,58.20
2019-06-09T02:02:28.284Z,59.57
2019-06-09T02:04:49.276Z,58.83
2019-06-09T02:07:23.480Z,59.35
2019-06-09T02:09:57.913Z,59.23
2019-06-09T02:12:30.817Z,58.77
2019-06-09T02:15:02.863Z,58.66
2019-06-09T02:17:34.701Z,58.81
2019-06-09T02:20:10.145Z,59.77
2019-06-09T02:22:42.773Z,59.97
2019-06-09T02:25:17.556Z,59.67
2019-06-09T02:27:50.834Z,59.62
2019-06-09T02:30:36.467Z,59.90
2019-06-09T02:33:10.993Z,59.92
2019-06-09T02:35:34.910Z,59.90
2019-06-09T02:38:08.708Z,59.92
2019-06-09T02:40:42.877Z,59.89
2019-06-09T02:43:17.172Z,60.35
2019-06-09T02:46:31.557Z,60.28
2019-06-09T02:49:05.484Z,60.13
2019-06-09T02:51:43.002Z,60.16
2019-06-09T02:54:15.920Z,59.51
2019-06-09T02:56:52.576Z,60.75
2019-06-09T02:59:31.675Z,61.00
2019-06-09T03:02:02.248Z,60.65
2019-06-09T03:04:44.392Z,60.62
2019-06-09T03:07:06.762Z,60.18
2019-06-09T03:09:42.291Z,60.33
2019-06-09T03:12:12.757Z,60.20
2019-06-09T03:14:47.743Z,60.49
2019-06-09T03:21:02.615Z,60.06
2019-06-09T03:23:39.480Z,59.88
2019-06-09T03:26:07.068Z,60.13
2019-06-09T03:28:44.217Z,59.86
2019-06-09T03:31:34.173Z,59.63
2019-06-09T03:35:17.591Z,60.41
2019-06-09T03:37:21.926Z,59.98
2019-06-09T03:39:08.259Z,59.67
2019-06-09T03:41:44.246Z,59.82
2019-06-09T03:44:14.017Z,59.87
2019-06-09T03:46:51.472Z,59.88
2019-06-09T03:49:26.278Z,60.34
2019-06-09T03:51:58.087Z,60.30
2019-06-09T03:54:38.230Z,60.25
2019-06-09T03:57:08.867Z,60.95
2019-06-09T03:59:47.171Z,60.95
2019-06-09T04:02:15.480Z,62.03
2019-06-09T04:04:52.404Z,62.53
2019-06-09T04:07:31.079Z,63.23
2019-06-09T04:10:02.673Z,62.83
2019-06-09T04:12:39.826Z,62.60
2019-06-09T04:15:08.330Z,62.93
2019-06-09T04:17:44.041Z,62.95
2019-06-09T04:20:15.733Z,63.03
2019-06-09T04:22:53.625Z,62.82
2019-06-09T04:25:25.468Z,62.89
2019-06-09T04:27:58.203Z,63.06
2019-06-09T04:30:40.032Z,63.53
2019-06-09T04:33:05.680Z,63.56
2019-06-09T04:35:57.165Z,63.43
2019-06-09T04:38:11.782Z,63.55
2019-06-09T04:40:45.166Z,64.05
2019-06-09T04:43:16.357Z,64.00
2019-06-09T04:45:48.581Z,64.30
2019-06-09T04:48:22.417Z,64.41
2019-06-09T04:50:55.394Z,63.81
2019-06-09T04:53:32.968Z,63.97
2019-06-09T04:56:04.577Z,63.33
2019-06-09T04:58:52.388Z,63.32
2019-06-09T05:01:13.039Z,63.48
2019-06-09T05:03:46.879Z,63.81
2019-06-09T05:06:38.886Z,63.63
2019-06-09T05:08:54.209Z,62.37
2019-06-09T05:11:31.084Z,62.83
2019-06-09T05:14:02.985Z,62.79
2019-06-09T05:16:38.769Z,62.25
2019-06-09T05:19:07.725Z,61.71
2019-06-09T05:21:50.206Z,61.47
2019-06-09T05:24:16.663Z,61.35
2019-06-09T05:26:52.547Z,61.40
2019-06-09T05:29:25.487Z,62.42
2019-06-09T05:32:01.994Z,61.16
2019-06-09T05:34:37.030Z,60.66
2019-06-09T05:37:18.334Z,61.80
2019-06-09T05:39:46.339Z,61.22
2019-06-09T05:42:17.651Z,61.30
2019-06-09T05:44:51.459Z,60.85
2019-06-09T05:47:26.502Z,58.99
2019-06-09T05:50:00.954Z,59.50
2019-06-09T05:52:34.988Z,58.97
2019-06-09T05:55:11.460Z,58.58
2019-06-09T05:57:44.709Z,58.64
2019-06-09T06:00:21.494Z,58.39
2019-06-09T06:02:56.022Z,57.17
2019-06-09T06:05:32.215Z,57.02
2019-06-09T06:08:03.828Z,57.19
2019-06-09T06:10:37.874Z,55.58
2019-06-09T06:13:12.138Z,56.34
2019-06-09T06:15:46.119Z,53.84
2019-06-09T06:18:21.091Z,54.64
2019-06-09T06:20:53.886Z,55.04
2019-06-09T06:23:28.657Z,52.57
2019-06-09T06:26:03.861Z,52.10
2019-06-09T06:28:35.405Z,52.75
2019-06-09T06:31:08.027Z,50.98
2019-06-09T06:33:42.780Z,50.33
2019-06-09T06:36:12.901Z,49.68
2019-06-09T06:38:45.937Z,48.72
2019-06-09T06:41:21.155Z,48.72
2019-06-09T06:43:53.090Z,48.35
2019-06-09T06:46:26.766Z,49.43
2019-06-09T06:49:01.735Z,49.12
2019-06-09T06:51:34.051Z,50.43
2019-06-09T06:54:06.078Z,49.29
2019-06-09T06:56:42.096Z,46.17
2019-06-09T06:59:13.511Z,46.85
2019-06-09T07:01:47.914Z,48.35
2019-06-09T07:04:22.252Z,47.98
2019-06-09T07:06:55.864Z,46.18
2019-06-09T07:09:27.382Z,45.93
2019-06-09T07:12:01.190Z,46.16
2019-06-09T07:14:33.369Z,47.03
2019-06-09T07:17:07.173Z,46.18
2019-06-09T07:19:42.165Z,46.35
2019-06-09T07:22:15.533Z,45.65
2019-06-09T07:24:49.721Z,46.17
2019-06-09T07:27:26.423Z,47.31
2019-06-09T07:30:01.164Z,47.94
2019-06-09T07:32:33.348Z,46.46
2019-06-09T07:35:07.419Z,45.27
2019-06-09T07:37:42.826Z,46.62
2019-06-09T07:40:13.580Z,45.23
2019-06-09T07:42:47.905Z,46.69
2019-06-09T07:45:23.093Z,46.45
2019-06-09T07:47:58.121Z,44.39
2019-06-09T07:50:31.676Z,44.89
2019-06-09T07:53:02.964Z,47.32
2019-06-09T07:55:37.774Z,45.46
2019-06-09T07:58:11.713Z,45.16
2019-06-09T08:00:43.841Z,43.30
2019-06-09T08:03:21.918Z,44.12
2019-06-09T08:06:00.455Z,43.89
2019-06-09T08:08:40.517Z,44.23
2019-06-09T08:11:11.560Z,42.97
2019-06-09T08:13:45.118Z,43.57
2019-06-09T08:16:21.313Z,42.11
2019-06-09T08:18:54.380Z,43.09
2019-06-09T08:21:31.723Z,42.85
2019-06-09T08:24:21.665Z,43.00
2019-06-09T08:26:55.327Z,43.41
2019-06-09T08:29:27.435Z,43.98
2019-06-09T08:32:01.259Z,40.67
2019-06-09T08:34:33.605Z,41.52
2019-06-09T08:37:13.651Z,41.29
2019-06-09T08:40:00.772Z,40.63
2019-06-09T08:42:36.969Z,40.40
2019-06-09T08:45:10.672Z,40.63
2019-06-09T08:47:50.361Z,39.96
2019-06-09T08:50:31.377Z,39.78
2019-06-09T08:53:11.811Z,40.22
2019-06-09T08:55:52.058Z,40.06
2019-06-09T08:58:33.247Z,41.33
2019-06-09T09:01:13.475Z,41.74
2019-06-09T09:03:55.865Z,41.75
2019-06-09T09:06:34.975Z,39.98
2019-06-09T09:09:22.087Z,40.15
2019-06-09T09:11:51.886Z,40.64
2019-06-09T09:14:25.357Z,42.49
2019-06-09T09:17:05.560Z,42.44
2019-06-09T09:19:45.058Z,40.49
2019-06-09T09:22:27.015Z,40.88
2019-06-09T09:25:18.653Z,40.57
2019-06-09T09:27:52.238Z,40.80
2019-06-09T09:30:30.968Z,39.38
2019-06-09T09:33:05.591Z,40.26
2019-06-09T09:35:37.176Z,38.61
2019-06-09T09:38:11.785Z,38.84
2019-06-09T09:40:45.626Z,38.22
2019-06-09T09:43:21.265Z,39.00
2019-06-09T09:45:57.014Z,41.44
2019-06-09T09:48:31.526Z,39.87
2019-06-09T09:51:06.084Z,40.18
2019-06-09T09:53:41.590Z,41.12
2019-06-09T09:56:14.772Z,40.78
2019-06-09T09:58:52.094Z,40.72
2019-06-09T10:01:22.929Z,40.21
2019-06-09T10:03:57.115Z,39.22
2019-06-09T10:06:30.912Z,39.61
2019-06-09T10:09:08.113Z,39.47
2019-06-09T10:11:41.937Z,41.34
2019-06-09T10:14:15.097Z,37.73
2019-06-09T10:16:47.535Z,39.59
2019-06-09T10:19:21.507Z,37.95
2019-06-09T10:21:57.593Z,39.29
2019-06-09T10:24:30.956Z,39.65
2019-06-09T10:27:02.481Z,41.88
2019-06-09T10:29:35.189Z,40.74
2019-06-09T10:32:11.379Z,37.98
2019-06-09T10:34:44.503Z,38.43
2019-06-09T10:37:16.247Z,39.15
2019-06-09T10:40:04.348Z,38.97
2019-06-09T10:42:24.167Z,36.34
2019-06-09T10:44:58.257Z,36.59
2019-06-09T10:47:30.862Z,37.41
2019-06-09T10:50:04.163Z,36.86
2019-06-09T10:52:37.911Z,36.82
2019-06-09T10:55:11.962Z,38.12
2019-06-09T10:57:44.864Z,38.53
2019-06-09T11:00:27.740Z,39.16
2019-06-09T11:02:51.537Z,37.45
2019-06-09T11:05:24.592Z,36.72
2019-06-09T11:08:00.854Z,35.71
2019-06-09T11:10:35.316Z,36.06
2019-06-09T11:13:06.450Z,38.35
2019-06-09T11:15:40.105Z,38.87
2019-06-09T11:18:21.854Z,38.24
2019-06-09T11:21:05.155Z,37.30
2019-06-09T11:23:43.515Z,36.22
2019-06-09T11:26:22.868Z,36.85
2019-06-09T11:29:04.852Z,36.57
2019-06-09T11:31:40.716Z,36.00
2019-06-09T11:34:12.580Z,37.47
2019-06-09T11:36:44.489Z,36.67
2019-06-09T11:39:16.608Z,36.31
2019-06-09T11:41:48.536Z,37.76
2019-06-09T11:44:25.434Z,36.89
2019-06-09T11:47:05.686Z,36.69
2019-06-09T11:49:37.762Z,36.79
2019-06-09T11:52:13.263Z,35.68
2019-06-09T11:54:45.539Z,35.93
2019-06-09T11:57:34.732Z,35.44
2019-06-09T12:00:15.135Z,36.73
2019-06-09T12:02:41.688Z,37.34
2019-06-09T12:05:16.912Z,36.51
2019-06-09T12:07:51.124Z,35.89
2019-06-09T12:10:23.523Z,35.68
2019-06-09T12:12:57.884Z,36.18
2019-06-09T12:15:30.738Z,36.16
2019-06-09T12:18:43.473Z,35.54
2019-06-09T12:21:20.644Z,35.51
2019-06-09T12:23:54.503Z,35.61
2019-06-09T12:26:27.544Z,37.67
2019-06-09T12:29:06.058Z,36.23
2019-06-09T12:31:35.061Z,37.37
2019-06-09T12:34:08.119Z,35.81
2019-06-09T12:36:42.255Z,36.05
2019-06-09T12:39:15.823Z,38.32
2019-06-09T12:41:51.311Z,36.41
2019-06-09T12:44:25.304Z,35.77
2019-06-09T12:47:01.515Z,36.36
2019-06-09T12:49:40.683Z,37.90
2019-06-09T12:52:14.110Z,33.99
2019-06-09T12:54:49.130Z,36.44
2019-06-09T12:57:21.822Z,36.83
2019-06-09T12:59:55.954Z,35.92
2019-06-09T13:02:28.859Z,37.63
2019-06-09T13:05:04.240Z,38.58
2019-06-09T13:07:34.969Z,37.75
2019-06-09T13:10:08.948Z,38.86
2019-06-09T13:12:43.168Z,37.41
2019-06-09T13:15:16.019Z,38.66
2019-06-09T13:17:51.732Z,39.53
2019-06-09T13:20:24.256Z,38.05
2019-06-09T13:22:57.709Z,36.27
2019-06-09T13:25:34.013Z,38.01
2019-06-09T13:28:04.815Z,37.55
2019-06-09T13:30:37.237Z,37.09
2019-06-09T13:33:14.119Z,36.76
2019-06-09T13:35:46.174Z,38.43
2019-06-09T13:38:19.198Z,35.78
2019-06-09T13:40:53.253Z,36.96
2019-06-09T13:43:26.314Z,37.98
2019-06-09T13:46:00.647Z,37.77
2019-06-09T13:48:34.075Z,36.57
2019-06-09T13:51:06.599Z,36.42
2019-06-09T13:53:41.399Z,36.47
2019-06-09T13:56:15.661Z,37.80
2019-06-09T13:58:51.129Z,36.50
2019-06-09T14:01:25.974Z,36.25
2019-06-09T14:04:04.395Z,36.20
2019-06-09T14:06:36.280Z,36.44
2019-06-09T14:09:13.462Z,37.33
2019-06-09T14:12:01.029Z,36.60
2019-06-09T14:14:21.176Z,37.72
2019-06-09T14:16:54.239Z,37.54
2019-06-09T14:19:26.378Z,37.44
2019-06-09T14:22:01.393Z,36.37
2019-06-09T14:24:34.635Z,36.92
2019-06-09T14:27:07.956Z,37.30
2019-06-09T14:29:41.721Z,38.84
2019-06-09T14:32:25.274Z,38.50
2019-06-09T14:34:49.333Z,39.19
2019-06-09T14:37:21.771Z,39.41
2019-06-09T14:39:53.400Z,39.19
2019-06-09T14:42:36.801Z,38.33
2019-06-09T14:45:01.024Z,38.01
2019-06-09T14:47:36.139Z,36.34
2019-06-09T14:50:12.255Z,38.00
2019-06-09T14:52:45.058Z,39.36
2019-06-09T14:55:21.394Z,37.53
2019-06-09T14:57:53.477Z,38.73
2019-06-09T15:00:26.868Z,39.76
2019-06-09T15:03:00.770Z,40.00
2019-06-09T15:05:32.894Z,40.50
2019-06-09T15:08:07.881Z,39.87
2019-06-09T15:10:41.149Z,40.15
2019-06-09T15:13:16.044Z,39.05
2019-06-09T15:15:51.698Z,39.38
2019-06-09T15:18:26.389Z,39.51
2019-06-09T15:21:01.690Z,40.42
2019-06-09T15:23:35.790Z,40.34
2019-06-09T15:26:07.823Z,40.93
2019-06-09T15:28:42.080Z,40.82
2019-06-09T15:31:15.944Z,40.46
2019-06-09T15:33:50.594Z,41.44
2019-06-09T15:36:24.671Z,41.54
2019-06-09T15:39:00.900Z,41.45
2019-06-09T15:41:34.384Z,41.02
2019-06-09T15:44:07.848Z,41.32
2019-06-09T15:46:41.313Z,41.66
2019-06-09T15:49:15.906Z,42.15
2019-06-09T15:51:50.736Z,41.91
2019-06-09T15:54:25.459Z,41.72
2019-06-09T15:57:00.822Z,41.54
2019-06-09T15:59:35.351Z,42.11
2019-06-09T16:02:09.456Z,41.50
2019-06-09T16:04:41.535Z,41.91
2019-06-09T16:07:13.503Z,41.72
2019-06-09T16:09:45.892Z,42.24
2019-06-09T16:12:18.194Z,43.98
2019-06-09T16:14:51.683Z,43.99
2019-06-09T16:17:24.612Z,43.46
2019-06-09T16:19:57.860Z,43.20
2019-06-09T16:22:33.681Z,43.12
2019-06-09T16:25:09.610Z,43.42
2019-06-09T16:27:52.205Z,43.75
2019-06-09T16:30:22.480Z,43.63
2019-06-09T16:32:54.000Z,43.78
2019-06-09T16:35:25.165Z,43.91
2019-06-09T16:37:57.996Z,44.04
2019-06-09T16:40:35.622Z,44.15
2019-06-09T16:43:07.997Z,45.00
2019-06-09T16:45:42.743Z,45.68
2019-06-09T16:48:14.982Z,45.86
2019-06-09T16:50:57.666Z,46.44
2019-06-09T16:53:25.084Z,46.47
2019-06-09T16:55:58.079Z,46.94
2019-06-09T16:58:35.322Z,47.70
2019-06-09T17:01:06.170Z,47.49
2019-06-09T17:03:41.423Z,47.70
2019-06-09T17:06:14.179Z,47.56
2019-06-09T17:08:52.093Z,47.65
2019-06-09T17:11:26.914Z,48.56
2019-06-09T17:14:06.428Z,48.13
2019-06-09T17:16:36.235Z,48.47
2019-06-09T17:19:08.204Z,48.07
2019-06-09T17:21:41.329Z,48.42
2019-06-09T17:24:14.262Z,48.21
2019-06-09T17:26:47.215Z,48.25
2019-06-09T17:29:21.867Z,48.24
2019-06-09T17:31:54.320Z,48.76
2019-06-09T17:34:28.083Z,48.73
2019-06-09T17:37:02.377Z,48.15
2019-06-09T17:39:34.390Z,48.23
2019-06-09T17:42:11.134Z,48.56
2019-06-09T17:44:42.632Z,48.68
2019-06-09T17:47:15.391Z,48.81
2019-06-09T17:49:50.735Z,48.85
2019-06-09T17:52:25.478Z,49.27
2019-06-09T17:55:00.761Z,49.24
2019-06-09T17:57:41.147Z,49.51
2019-06-09T18:00:10.964Z,49.81
2019-06-09T18:02:59.431Z,49.49
2019-06-09T18:05:21.011Z,50.79
2019-06-09T18:07:57.191Z,50.93
2019-06-09T18:10:32.855Z,51.79
2019-06-09T18:13:02.529Z,52.25
2019-06-09T18:15:40.465Z,52.61
2019-06-09T18:18:09.159Z,52.99
2019-06-09T18:20:42.013Z,53.45
2019-06-09T18:23:15.609Z,53.26
2019-06-09T18:25:47.646Z,53.63
2019-06-09T18:28:21.593Z,54.18
2019-06-09T18:30:58.046Z,53.76
2019-06-09T18:33:32.981Z,53.54
2019-06-09T18:36:04.713Z,54.14
2019-06-09T18:38:38.552Z,54.33
2019-06-09T18:41:12.578Z,54.30
2019-06-09T18:43:48.264Z,54.36
2019-06-09T18:46:23.062Z,54.85
2019-06-09T18:48:56.690Z,54.89
2019-06-09T18:51:29.851Z,54.90
2019-06-09T18:54:04.131Z,54.83
2019-06-09T18:56:36.971Z,55.13
2019-06-09T18:59:10.961Z,55.02
2019-06-09T19:01:42.731Z,55.63
2019-06-09T19:04:16.709Z,55.62
2019-06-09T19:06:52.021Z,55.75
2019-06-09T19:09:24.796Z,56.48
2019-06-09T19:11:57.799Z,56.52
2019-06-09T19:14:31.091Z,56.98
2019-06-09T19:17:07.566Z,56.96
2019-06-09T19:19:39.769Z,57.46
2019-06-09T19:22:12.875Z,59.15
2019-06-09T19:24:45.765Z,60.73
2019-06-09T19:27:16.935Z,59.89
2019-06-09T19:29:50.261Z,59.54
2019-06-09T19:32:22.185Z,59.11
2019-06-09T19:34:55.047Z,59.02
2019-06-09T19:37:30.156Z,59.61
2019-06-09T19:40:02.996Z,59.83
2019-06-09T19:42:34.894Z,59.85
2019-06-09T19:45:13.454Z,59.54
2019-06-09T19:47:45.415Z,59.82
2019-06-09T19:50:16.269Z,60.50
2019-06-09T19:52:51.872Z,60.20
2019-06-09T19:55:26.121Z,60.24
2019-06-09T19:57:58.264Z,60.77
2019-06-09T20:00:47.301Z,60.71
2019-06-09T20:03:20.902Z,62.24
2019-06-09T20:05:54.254Z,62.39
2019-06-09T20:08:28.134Z,62.71
2019-06-09T20:11:02.303Z,62.17
2019-06-09T20:13:35.508Z,61.84
2019-06-09T20:16:16.270Z,61.20
2019-06-09T20:18:52.254Z,61.75
2019-06-09T20:21:25.848Z,62.73
2019-06-09T20:24:01.394Z,62.26
2019-06-09T20:26:34.552Z,61.96
2019-06-09T20:29:09.024Z,61.85
2019-06-09T20:31:44.231Z,61.41
2019-06-09T20:34:16.343Z,61.34
2019-06-09T20:36:51.205Z,62.00
2019-06-09T20:39:23.237Z,62.93
2019-06-09T20:41:57.850Z,62.24
2019-06-09T20:44:30.744Z,61.92
2019-06-09T20:47:02.275Z,61.64
2019-06-09T20:49:34.404Z,62.49
2019-06-09T20:52:06.232Z,62.98
2019-06-09T20:54:37.467Z,62.86
2019-06-09T20:57:11.843Z,62.63
2019-06-09T20:59:46.814Z,63.08
2019-06-09T21:02:19.328Z,63.51
2019-06-09T21:04:53.274Z,64.12
2019-06-09T21:07:26.804Z,63.27
2019-06-09T21:10:01.370Z,63.13
2019-06-09T21:12:35.429Z,63.85
2019-06-09T21:15:07.561Z,63.39
2019-06-09T21:17:45.343Z,63.12
2019-06-09T21:20:15.582Z,63.44
2019-06-09T21:22:47.968Z,63.44
2019-06-09T21:25:21.460Z,63.21
2019-06-09T21:27:54.588Z,63.49
2019-06-09T21:30:33.039Z,62.87
2019-06-09T21:33:04.766Z,63.45
2019-06-09T21:35:37.566Z,62.87
2019-06-09T21:38:12.173Z,62.74
2019-06-09T21:40:43.558Z,62.60
2019-06-09T21:43:17.538Z,62.73
2019-06-09T21:45:55.826Z,62.66
2019-06-09T21:48:25.756Z,62.66
2019-06-09T21:50:58.628Z,62.75
2019-06-09T21:53:31.540Z,62.59
2019-06-09T21:56:07.404Z,62.49
2019-06-09T21:58:43.278Z,62.56
2019-06-09T22:01:16.580Z,62.72
2019-06-09T22:03:54.490Z,62.94
2019-06-09T22:06:28.200Z,63.08
2019-06-09T22:09:05.629Z,63.40
2019-06-09T22:11:38.009Z,63.90
2019-06-09T22:14:11.885Z,63.55
2019-06-09T22:16:57.689Z,63.96
2019-06-09T22:19:17.754Z,64.23
2019-06-09T22:21:52.775Z,63.72
2019-06-09T22:24:24.795Z,64.54
2019-06-09T22:26:57.601Z,64.32
2019-06-09T22:29:31.136Z,64.56
2019-06-09T22:32:03.682Z,64.82
2019-06-09T22:34:34.877Z,64.46
2019-06-09T22:37:06.808Z,64.36
2019-06-09T22:39:38.028Z,64.50
2019-06-09T22:42:12.156Z,64.51
2019-06-09T22:44:44.754Z,64.64
2019-06-09T22:47:25.292Z,65.46
2019-06-09T22:49:52.677Z,65.70
2019-06-09T22:52:25.994Z,65.52
2019-06-09T22:54:59.607Z,65.39
2019-06-09T22:57:31.907Z,65.17
2019-06-09T23:00:11.355Z,64.68
2019-06-09T23:02:41.072Z,64.68
2019-06-09T23:05:13.072Z,65.27
2019-06-09T23:07:46.028Z,65.26
2019-06-09T23:10:21.750Z,65.31
2019-06-09T23:12:56.936Z,66.10
2019-06-09T23:15:31.467Z,66.37
2019-06-09T23:18:04.326Z,67.35
2019-06-09T23:20:36.303Z,67.25
2019-06-09T23:23:11.365Z,66.52
2019-06-09T23:25:45.148Z,66.18
2019-06-09T23:28:21.157Z,65.84
2019-06-09T23:30:55.664Z,65.84
2019-06-09T23:33:27.924Z,65.94
2019-06-09T23:36:01.011Z,66.56
2019-06-09T23:38:34.707Z,66.66
2019-06-09T23:41:06.254Z,66.50
2019-06-09T23:43:41.130Z,66.89
2019-06-09T23:46:13.124Z,66.70
2019-06-09T23:48:47.213Z,66.69
2019-06-09T23:51:21.666Z,66.37
2019-06-09T23:53:54.592Z,66.20
2019-06-09T23:56:30.607Z,66.62
2019-06-09T23:59:05.214Z,68.23
